Time;durP1;ratioP1;P1;durP2;ratioP2;P2;SDS_P1;SDS_P2;PMS_P1;PMS_P2;Temp;Humidity;BMP_temperature;BMP_pressure;BME280_temperature;BME280_humidity;BME280_pressure;Samples;Min_cycle;Max_cycle;Signal;HPM_P1;HPM_P2
2023/10/17 00:01:35;;;;;;;2.10;0.60;;;7.20;99.90;;;;;;5017995;28;20045;-74
2023/10/17 00:06:47;;;;;;;1.75;0.60;;;7.30;99.90;;;;;;5034976;28;20037;-73
2023/10/17 00:09:49;;;;;;;3.20;0.88;;;7.30;99.90;;;;;;4990868;28;20436;-73
2023/10/17 00:14:58;;;;;;;1.48;0.75;;;7.30;99.90;;;;;;5017212;28;20025;-73
2023/10/17 00:17:24;;;;;;;4.38;1.20;;;7.30;99.90;;;;;;5016331;28;20339;-73
2023/10/17 00:19:50;;;;;;;1.50;0.75;;;7.40;99.90;;;;;;5017045;28;20409;-74
2023/10/17 00:22:18;;;;;;;2.78;1.00;;;7.40;99.90;;;;;;5018171;28;20185;-74
2023/10/17 00:24:46;;;;;;;3.20;0.90;;;7.40;99.90;;;;;;5018040;28;20084;-73
2023/10/17 00:27:14;;;;;;;2.65;0.90;;;7.40;99.90;;;;;;5016906;28;20026;-73
2023/10/17 00:29:40;;;;;;;1.73;0.70;;;7.40;99.90;;;;;;5018488;28;20033;-74
2023/10/17 00:32:09;;;;;;;2.38;0.93;;;7.50;99.90;;;;;;5001168;28;20507;-74
2023/10/17 00:34:36;;;;;;;2.05;0.82;;;7.40;99.90;;;;;;5017624;28;20032;-73
2023/10/17 00:37:14;;;;;;;2.40;0.80;;;7.50;99.90;;;;;;5019341;28;20500;-74
2023/10/17 00:39:40;;;;;;;2.60;0.85;;;7.50;99.90;;;;;;5016619;28;20038;-73
2023/10/17 00:44:46;;;;;;;4.40;1.45;;;7.50;99.90;;;;;;5018126;28;20037;-73
2023/10/17 00:47:13;;;;;;;3.60;1.00;;;7.60;99.90;;;;;;5000740;28;20038;-73
2023/10/17 00:49:41;;;;;;;3.05;1.15;;;7.60;99.90;;;;;;5016102;28;20044;-74
2023/10/17 00:52:18;;;;;;;4.82;0.65;;;7.60;99.90;;;;;;5001078;28;20057;-74
2023/10/17 00:54:46;;;;;;;3.08;0.70;;;7.60;99.90;;;;;;4985201;28;20029;-74
2023/10/17 00:57:14;;;;;;;3.03;1.17;;;7.60;99.90;;;;;;4999094;28;20547;-73
2023/10/17 00:59:50;;;;;;;3.65;0.93;;;7.60;99.90;;;;;;5017042;28;20029;-74
2023/10/17 01:02:22;;;;;;;3.70;0.82;;;7.60;99.90;;;;;;5017834;28;20389;-74
2023/10/17 01:04:51;;;;;;;3.70;1.10;;;7.70;99.90;;;;;;5017720;28;20497;-73
2023/10/17 01:07:31;;;;;;;6.95;0.98;;;7.70;99.90;;;;;;4984533;28;20052;-74
2023/10/17 01:10:26;;;;;;;4.20;1.15;;;7.70;99.90;;;;;;5015449;28;20025;-73
2023/10/17 01:12:53;;;;;;;2.35;1.05;;;7.70;99.90;;;;;;5019123;28;20066;-74
2023/10/17 01:15:29;;;;;;;3.10;0.98;;;7.70;99.90;;;;;;5016424;28;20040;-73
2023/10/17 01:18:03;;;;;;;3.00;1.00;;;7.70;99.90;;;;;;5012188;28;20034;-74
2023/10/17 01:20:34;;;;;;;2.13;0.82;;;7.70;99.90;;;;;;5019343;28;20030;-74
2023/10/17 01:23:01;;;;;;;2.85;0.90;;;7.70;99.90;;;;;;5032345;28;20033;-76
2023/10/17 01:25:35;;;;;;;2.85;1.10;;;7.70;99.90;;;;;;5018077;28;20353;-74
2023/10/17 01:28:03;;;;;;;2.65;0.93;;;7.70;99.90;;;;;;5016792;28;20128;-74
2023/10/17 01:30:29;;;;;;;5.32;1.15;;;7.70;99.90;;;;;;5013987;28;20381;-74
2023/10/17 01:32:57;;;;;;;3.38;0.82;;;7.70;99.90;;;;;;5017242;28;20465;-74
2023/10/17 01:35:24;;;;;;;4.38;1.23;;;7.70;99.90;;;;;;5008772;28;20514;-74
2023/10/17 01:37:54;;;;;;;4.20;1.23;;;7.70;99.90;;;;;;5016659;28;20026;-74
2023/10/17 01:40:26;;;;;;;3.15;1.30;;;7.70;99.90;;;;;;5000276;28;20507;-74
2023/10/17 01:42:57;;;;;;;4.07;1.07;;;7.70;99.90;;;;;;5000694;28;20041;-74
2023/10/17 01:45:25;;;;;;;3.67;1.30;;;7.80;99.90;;;;;;5015627;28;20268;-74
2023/10/17 01:47:52;;;;;;;4.63;1.80;;;7.80;99.90;;;;;;4998592;28;20318;-74
2023/10/17 01:50:23;;;;;;;5.93;1.23;;;7.80;99.90;;;;;;5016817;28;20041;-74
2023/10/17 01:52:53;;;;;;;2.93;1.37;;;7.80;99.90;;;;;;4995911;28;20056;-73
2023/10/17 01:55:24;;;;;;;4.15;1.52;;;7.80;99.90;;;;;;5016764;28;20032;-74
2023/10/17 01:57:54;;;;;;;4.65;1.40;;;7.80;99.90;;;;;;5016588;28;20056;-73
2023/10/17 02:00:37;;;;;;;2.45;1.00;;;7.80;99.90;;;;;;4999876;28;20040;-74
2023/10/17 02:03:05;;;;;;;4.07;1.02;;;7.90;99.90;;;;;;4997049;28;20037;-73
2023/10/17 02:05:35;;;;;;;2.65;0.70;;;7.80;99.90;;;;;;4983490;28;20584;-73
2023/10/17 02:08:01;;;;;;;2.25;1.00;;;7.80;99.90;;;;;;4999801;28;20045;-73
2023/10/17 02:10:29;;;;;;;4.10;1.38;;;7.80;99.90;;;;;;5031044;28;20041;-74
2023/10/17 02:12:56;;;;;;;3.60;1.20;;;7.80;99.90;;;;;;5016753;28;20485;-74
2023/10/17 02:15:26;;;;;;;3.47;1.08;;;7.90;99.90;;;;;;5001704;28;20041;-74
2023/10/17 02:17:53;;;;;;;4.20;1.50;;;7.90;99.90;;;;;;5015188;28;20040;-74
2023/10/17 02:20:30;;;;;;;4.47;1.40;;;7.90;99.90;;;;;;5028516;28;20372;-74
2023/10/17 02:23:19;;;;;;;2.25;1.20;;;7.80;99.90;;;;;;5031727;28;20032;-74
2023/10/17 02:25:46;;;;;;;4.65;1.13;;;7.80;99.90;;;;;;5016615;28;20464;-74
2023/10/17 02:28:12;;;;;;;4.32;1.60;;;7.80;99.90;;;;;;5015526;28;20595;-74
2023/10/17 02:30:39;;;;;;;3.42;1.13;;;7.80;99.90;;;;;;4999937;28;20429;-73
2023/10/17 02:33:17;;;;;;;5.32;2.30;;;7.80;99.90;;;;;;4981967;28;20030;-74
2023/10/17 02:36:07;;;;;;;3.70;1.60;;;7.80;99.90;;;;;;4995604;28;20476;-74
2023/10/17 02:38:34;;;;;;;3.78;1.23;;;7.90;99.90;;;;;;5017129;28;20052;-74
2023/10/17 02:41:01;;;;;;;4.78;1.80;;;7.90;99.90;;;;;;4999420;28;20401;-73
2023/10/17 02:43:29;;;;;;;3.95;1.67;;;7.80;99.90;;;;;;4999085;28;20507;-73
2023/10/17 02:46:04;;;;;;;2.30;1.33;;;7.80;99.90;;;;;;5015776;28;20038;-73
2023/10/17 02:48:37;;;;;;;3.47;1.85;;;7.80;99.90;;;;;;5015993;28;20025;-74
2023/10/17 02:51:18;;;;;;;6.20;2.05;;;7.80;99.90;;;;;;4996053;28;20508;-74
2023/10/17 02:53:44;;;;;;;4.30;1.60;;;7.90;99.90;;;;;;5014356;28;20033;-74
2023/10/17 02:56:19;;;;;;;2.72;1.60;;;7.90;99.90;;;;;;4999866;28;20021;-73
2023/10/17 02:58:50;;;;;;;3.28;1.00;;;7.90;99.90;;;;;;5032245;28;20025;-73
2023/10/17 03:01:18;;;;;;;3.88;1.70;;;7.90;99.90;;;;;;5020136;28;20033;-73
2023/10/17 03:03:51;;;;;;;3.33;1.30;;;7.90;99.90;;;;;;5021141;28;20088;-74
2023/10/17 03:06:18;;;;;;;2.03;0.98;;;7.90;99.90;;;;;;5020757;28;20045;-73
2023/10/17 03:08:51;;;;;;;2.83;1.20;;;7.90;99.90;;;;;;5016937;28;20033;-74
2023/10/17 03:11:27;;;;;;;1.92;1.00;;;7.90;99.90;;;;;;5025738;28;20033;-74
2023/10/17 03:13:53;;;;;;;3.83;1.50;;;7.90;99.90;;;;;;5034527;28;20028;-74
2023/10/17 03:16:26;;;;;;;3.88;1.38;;;7.90;99.90;;;;;;5003077;28;20025;-74
2023/10/17 03:18:57;;;;;;;4.03;1.50;;;7.90;99.90;;;;;;5002998;28;20041;-74
2023/10/17 03:21:34;;;;;;;2.67;1.20;;;7.90;99.90;;;;;;5015278;28;20033;-73
2023/10/17 03:24:06;;;;;;;3.63;1.50;;;7.90;99.90;;;;;;5019900;28;20040;-73
2023/10/17 03:26:39;;;;;;;3.97;1.63;;;7.90;99.90;;;;;;5032785;28;20033;-74
2023/10/17 03:29:19;;;;;;;2.22;1.65;;;7.90;99.90;;;;;;4985455;28;20033;-74
2023/10/17 03:31:48;;;;;;;2.28;1.50;;;7.90;99.90;;;;;;5002610;28;20076;-74
2023/10/17 03:34:29;;;;;;;3.22;1.63;;;7.90;99.90;;;;;;4984366;28;20042;-73
2023/10/17 03:36:56;;;;;;;3.70;1.73;;;7.80;99.90;;;;;;5003215;28;20044;-74
2023/10/17 03:39:27;;;;;;;4.50;2.03;;;7.80;99.90;;;;;;5018072;28;20036;-73
2023/10/17 03:41:56;;;;;;;5.13;2.30;;;7.80;99.90;;;;;;5002851;28;20040;-74
2023/10/17 03:44:39;;;;;;;4.28;2.70;;;7.80;99.90;;;;;;5018592;28;20029;-73
2023/10/17 03:47:05;;;;;;;5.00;3.47;;;7.80;99.90;;;;;;5020074;28;20030;-73
2023/10/17 03:49:36;;;;;;;4.88;2.33;;;7.80;99.90;;;;;;5018317;28;20279;-74
2023/10/17 03:52:05;;;;;;;4.15;2.30;;;7.80;99.90;;;;;;5017845;28;20483;-74
2023/10/17 03:54:31;;;;;;;3.20;2.38;;;7.80;99.90;;;;;;5020319;28;20026;-74
2023/10/17 03:57:04;;;;;;;2.63;2.00;;;7.80;99.90;;;;;;5000317;28;20350;-74
2023/10/17 03:59:38;;;;;;;3.67;2.08;;;7.80;99.90;;;;;;5001094;28;20064;-74
2023/10/17 04:02:06;;;;;;;5.65;3.17;;;7.80;99.90;;;;;;5034086;28;20033;-74
2023/10/17 04:04:47;;;;;;;4.68;3.30;;;7.70;99.90;;;;;;5019701;28;20056;-74
2023/10/17 04:07:14;;;;;;;6.95;3.38;;;7.80;99.90;;;;;;5030960;28;20120;-74
2023/10/17 04:12:48;;;;;;;5.88;4.10;;;7.80;99.90;;;;;;5019711;28;20037;-73
2023/10/17 04:15:18;;;;;;;5.97;3.90;;;7.70;99.90;;;;;;5016987;28;20033;-73
2023/10/17 04:17:48;;;;;;;5.40;3.40;;;7.70;99.90;;;;;;5017343;28;22953;-74
2023/10/17 04:20:16;;;;;;;5.63;3.60;;;7.70;99.90;;;;;;5001494;28;20033;-74
2023/10/17 04:22:45;;;;;;;7.13;4.70;;;7.70;99.90;;;;;;5017739;28;20041;-74
2023/10/17 04:28:00;;;;;;;6.70;4.28;;;7.70;99.90;;;;;;5018783;28;20484;-74
2023/10/17 04:30:30;;;;;;;5.30;3.75;;;7.70;99.90;;;;;;5018091;28;20025;-74
2023/10/17 04:33:08;;;;;;;5.10;3.10;;;7.70;99.90;;;;;;5019752;28;20516;-75
2023/10/17 04:35:48;;;;;;;4.93;2.65;;;7.70;99.90;;;;;;5018348;28;20036;-74
2023/10/17 04:38:36;;;;;;;5.72;3.53;;;7.70;99.90;;;;;;5000005;28;20032;-74
2023/10/17 04:44:05;;;;;;;6.90;4.00;;;7.70;99.90;;;;;;5031765;28;20246;-74
2023/10/17 04:46:45;;;;;;;7.65;4.70;;;7.70;99.90;;;;;;5023126;28;20045;-74
2023/10/17 04:49:17;;;;;;;8.70;5.57;;;7.70;99.90;;;;;;5015564;28;21257;-74
2023/10/17 04:51:44;;;;;;;12.68;7.93;;;7.70;99.90;;;;;;5017657;28;20388;-74
2023/10/17 04:57:02;;;;;;;11.82;7.43;;;7.70;99.90;;;;;;5000975;28;20032;-73
2023/10/17 05:03:03;;;;;;;16.60;13.55;;;7.70;99.90;;;;;;5018904;28;20036;-73
2023/10/17 06:19:21;;;;;;;17.02;13.27;;;7.20;99.90;;;;;;5017091;28;20033;-73
2023/10/17 06:24:45;;;;;;;23.63;13.55;;;7.20;99.90;;;;;;5016569;28;20017;-73
2023/10/17 06:34:47;;;;;;;19.27;12.90;;;7.10;99.90;;;;;;5017026;28;20480;-73
2023/10/17 06:37:20;;;;;;;16.35;12.20;;;7.00;99.90;;;;;;5015706;28;20033;-73
2023/10/17 06:39:47;;;;;;;18.40;13.57;;;7.10;99.90;;;;;;5014580;28;20052;-73
2023/10/17 06:42:14;;;;;;;14.93;11.02;;;7.10;99.90;;;;;;5013425;28;20036;-73
2023/10/17 06:44:53;;;;;;;12.88;10.32;;;7.00;99.90;;;;;;5015244;28;20032;-73
2023/10/17 06:47:31;;;;;;;16.45;10.82;;;7.00;99.90;;;;;;5015671;28;20037;-73
2023/10/17 06:55:21;;;;;;;16.80;11.48;;;7.00;99.90;;;;;;5016441;28;20380;-73
2023/10/17 06:57:52;;;;;;;14.30;10.48;;;7.00;99.90;;;;;;5014841;28;20048;-73
2023/10/17 07:00:24;;;;;;;14.27;10.50;;;7.00;99.90;;;;;;5015396;28;20025;-72
2023/10/17 07:02:56;;;;;;;13.57;10.55;;;7.00;99.90;;;;;;5031205;28;20045;-72
2023/10/17 07:05:23;;;;;;;13.17;10.07;;;7.10;99.90;;;;;;4992930;28;20037;-72
2023/10/17 07:07:52;;;;;;;15.90;11.55;;;7.10;99.90;;;;;;4981835;28;20322;-73
2023/10/17 07:13:41;;;;;;;17.58;12.65;;;7.10;99.90;;;;;;5016741;28;20041;-72
2023/10/17 07:16:16;;;;;;;15.75;10.88;;;7.20;99.90;;;;;;5010504;28;20036;-72
2023/10/17 07:23:44;;;;;;;15.98;11.93;;;7.40;99.90;;;;;;5014002;28;20823;-75
2023/10/17 07:26:35;;;;;;;18.45;10.70;;;7.50;99.90;;;;;;5025492;28;20036;-75
2023/10/17 07:29:05;;;;;;;15.43;11.20;;;7.60;99.90;;;;;;4990003;28;20037;-76
2023/10/17 07:31:32;;;;;;;11.57;9.55;;;7.70;99.90;;;;;;5006949;28;20473;-74
2023/10/17 07:36:37;;;;;;;9.93;8.80;;;7.90;99.90;;;;;;5027862;28;20480;-74
2023/10/17 07:39:06;;;;;;;16.20;11.45;;;8.00;99.90;;;;;;5011872;28;20233;-73
2023/10/17 07:41:36;;;;;;;12.80;9.65;;;8.10;99.90;;;;;;5013809;28;20061;-74
2023/10/17 07:44:19;;;;;;;16.60;12.32;;;8.10;99.90;;;;;;5009695;28;20049;-74
2023/10/17 07:46:50;;;;;;;13.63;9.40;;;8.20;99.90;;;;;;5015130;28;20539;-73
2023/10/17 07:49:26;;;;;;;12.48;9.15;;;8.30;99.90;;;;;;5023472;28;20040;-73
2023/10/17 07:51:54;;;;;;;16.80;11.35;;;8.40;99.90;;;;;;4999918;28;20038;-74
2023/10/17 07:54:28;;;;;;;14.23;10.70;;;8.50;99.90;;;;;;5015505;28;20038;-74
2023/10/17 07:56:58;;;;;;;11.85;9.43;;;8.60;99.90;;;;;;5017966;28;20036;-74
2023/10/17 07:59:31;;;;;;;14.10;10.43;;;8.60;99.90;;;;;;4999291;28;20033;-74
2023/10/17 08:02:18;;;;;;;;;;;8.60;99.90;;;;;;5016389;28;20062;-75
2023/10/17 08:04:45;;;;;;;11.40;9.20;;;8.70;99.90;;;;;;4977506;28;19905;-74
2023/10/17 08:07:13;;;;;;;11.80;8.65;;;8.70;99.90;;;;;;4983073;28;20022;-74
2023/10/17 08:10:02;;;;;;;13.52;10.10;;;8.70;99.90;;;;;;5014292;28;20716;-73
2023/10/17 08:12:29;;;;;;;13.20;11.38;;;8.70;99.90;;;;;;4998438;28;20033;-73
2023/10/17 08:14:58;;;;;;;16.52;12.38;;;8.80;99.90;;;;;;4994186;28;20044;-74
2023/10/17 08:17:27;;;;;;;16.48;12.00;;;8.80;99.90;;;;;;5007781;28;20617;-73
2023/10/17 08:20:00;;;;;;;16.10;12.30;;;8.90;99.90;;;;;;4999185;28;20543;-75
2023/10/17 08:22:27;;;;;;;13.10;10.27;;;8.90;99.90;;;;;;5015890;28;20460;-74
2023/10/17 08:24:54;;;;;;;14.38;11.68;;;9.00;99.90;;;;;;5016578;28;20521;-74
2023/10/17 08:30:14;;;;;;;13.77;11.70;;;9.10;99.90;;;;;;5016151;28;20052;-73
2023/10/17 08:32:55;;;;;;;17.63;14.00;;;9.10;99.90;;;;;;5016102;28;20049;-74
2023/10/17 08:35:36;;;;;;;15.18;12.02;;;9.20;99.90;;;;;;5015585;28;20037;-73
2023/10/17 08:38:03;;;;;;;18.25;12.43;;;9.30;99.90;;;;;;5016766;28;20030;-73
2023/10/17 08:40:31;;;;;;;14.93;12.30;;;9.30;99.90;;;;;;5018185;28;20038;-73
2023/10/17 08:43:20;;;;;;;15.57;12.90;;;9.40;99.90;;;;;;4998265;28;20433;-74
2023/10/17 08:45:49;;;;;;;14.63;11.82;;;9.50;99.90;;;;;;5016323;28;20025;-74
2023/10/17 08:48:16;;;;;;;15.98;11.57;;;9.60;99.90;;;;;;4999886;28;20064;-73
2023/10/17 08:50:43;;;;;;;17.08;12.63;;;9.60;99.90;;;;;;5000640;28;20477;-74
2023/10/17 08:53:13;;;;;;;18.52;13.57;;;9.70;99.90;;;;;;5018336;28;20029;-73
2023/10/17 08:55:40;;;;;;;16.42;13.45;;;9.70;99.90;;;;;;5017287;28;20029;-74
2023/10/17 08:58:09;;;;;;;15.93;12.05;;;9.80;99.90;;;;;;5018549;28;20024;-73
2023/10/17 09:03:31;;;;;;;16.73;12.07;;;9.90;99.90;;;;;;5017398;28;20037;-74
2023/10/17 09:06:28;;;;;;;20.00;12.70;;;10.00;99.90;;;;;;5033211;28;20025;-74
2023/10/17 09:09:32;;;;;;;13.20;10.65;;;10.00;99.90;;;;;;5016304;28;20037;-73
2023/10/17 09:11:41;;;;;;;14.10;11.40;;;10.10;99.90;;;;;;5012368;28;20068;-73
2023/10/17 09:14:26;;;;;;;13.30;11.40;;;10.30;99.90;;;;;;5017588;28;20037;-73
2023/10/17 09:17:39;;;;;;;13.60;11.45;;;10.40;99.90;;;;;;5012160;28;20037;-73
2023/10/17 09:20:06;;;;;;;12.02;9.55;;;10.50;99.90;;;;;;5014459;28;20044;-74
2023/10/17 09:22:40;;;;;;;18.95;13.43;;;10.60;99.90;;;;;;5017931;28;20384;-75
2023/10/17 09:25:19;;;;;;;17.05;11.52;;;10.80;99.90;;;;;;5012876;28;20495;-73
2023/10/17 09:27:53;;;;;;;12.40;9.82;;;10.90;99.90;;;;;;5000582;28;20029;-73
2023/10/17 09:30:19;;;;;;;13.23;11.02;;;11.00;99.90;;;;;;5016348;28;20036;-74
2023/10/17 09:32:48;;;;;;;15.23;11.20;;;11.00;99.90;;;;;;5000566;28;20025;-73
2023/10/17 09:35:16;;;;;;;11.95;9.93;;;11.10;99.90;;;;;;5017549;28;20033;-73
2023/10/17 09:37:50;;;;;;;11.07;9.48;;;11.10;99.90;;;;;;5015858;28;20025;-73
2023/10/17 09:40:30;;;;;;;14.38;11.32;;;11.10;99.90;;;;;;5028996;28;20471;-74
2023/10/17 09:42:58;;;;;;;11.82;9.82;;;11.20;99.90;;;;;;5000549;28;20139;-73
2023/10/17 09:45:31;;;;;;;14.32;9.48;;;11.20;99.90;;;;;;5014994;28;20045;-73
2023/10/17 09:48:04;;;;;;;12.93;10.73;;;11.40;99.90;;;;;;5015840;28;20610;-73
2023/10/17 09:50:34;;;;;;;14.20;10.45;;;11.60;99.90;;;;;;5031469;28;20037;-74
2023/10/17 09:53:12;;;;;;;13.38;10.38;;;11.80;99.90;;;;;;4999229;28;20288;-74
2023/10/17 09:55:46;;;;;;;13.00;9.60;;;12.00;99.90;;;;;;5015589;28;20388;-73
2023/10/17 09:58:17;;;;;;;12.55;9.73;;;12.10;99.90;;;;;;5030393;28;20037;-74
2023/10/17 10:00:52;;;;;;;11.63;8.82;;;12.30;99.90;;;;;;5018226;28;20034;-74
2023/10/17 10:03:21;;;;;;;10.85;7.03;;;12.40;99.90;;;;;;5015288;28;20030;-74
2023/10/17 10:05:53;;;;;;;10.00;6.57;;;12.60;99.90;;;;;;5016770;28;20376;-74
2023/10/17 10:08:33;;;;;;;6.70;4.93;;;12.80;99.90;;;;;;5031353;28;20384;-74
2023/10/17 10:11:01;;;;;;;9.52;5.80;;;13.00;99.90;;;;;;5027392;28;20496;-74
2023/10/17 10:13:27;;;;;;;10.50;5.88;;;13.10;99.90;;;;;;5016116;28;20056;-74
2023/10/17 10:16:10;;;;;;;8.90;5.90;;;13.50;99.90;;;;;;5016220;28;20612;-74
2023/10/17 10:18:42;;;;;;;8.00;4.78;;;13.60;99.90;;;;;;5016041;28;20036;-74
2023/10/17 10:21:12;;;;;;;7.88;4.57;;;13.80;99.90;;;;;;5017360;28;20032;-75
2023/10/17 10:23:39;;;;;;;5.70;4.05;;;14.30;99.90;;;;;;5015569;28;20041;-75
2023/10/17 10:26:12;;;;;;;4.20;2.72;;;14.80;99.90;;;;;;5012600;28;20385;-75
2023/10/17 10:28:39;;;;;;;5.60;3.83;;;15.20;99.90;;;;;;5012673;28;20831;-75
2023/10/17 10:31:24;;;;;;;3.92;2.88;;;15.60;99.90;;;;;;5015632;28;20033;-75
2023/10/17 10:33:58;;;;;;;5.45;4.15;;;15.90;99.90;;;;;;5014173;28;20366;-75
2023/10/17 10:36:25;;;;;;;;;;;15.60;99.90;;;;;;5016641;28;20400;-75
2023/10/17 10:38:55;;;;;;;5.97;3.42;;;15.10;99.90;;;;;;5015316;28;19905;-75
2023/10/17 10:41:22;;;;;;;5.60;3.00;;;14.60;99.90;;;;;;5016383;28;20030;-74
2023/10/17 10:43:57;;;;;;;5.43;3.25;;;14.20;99.90;;;;;;5014915;28;20064;-75
2023/10/17 10:46:24;;;;;;;5.45;3.53;;;14.20;99.90;;;;;;5016805;28;20052;-74
2023/10/17 10:48:53;;;;;;;5.85;2.38;;;14.20;99.90;;;;;;5015600;28;20044;-75
2023/10/17 10:51:26;;;;;;;5.97;3.58;;;14.20;99.90;;;;;;4996122;28;20037;-75
2023/10/17 10:53:56;;;;;;;5.47;3.83;;;14.10;99.90;;;;;;5018025;28;20034;-75
2023/10/17 10:56:25;;;;;;;6.55;4.30;;;13.80;99.90;;;;;;5015382;28;20025;-75
2023/10/17 10:58:55;;;;;;;7.28;4.57;;;13.50;99.90;;;;;;5031197;28;20237;-74
2023/10/17 11:01:23;;;;;;;5.55;3.65;;;13.20;99.90;;;;;;5016682;28;20029;-75
2023/10/17 11:03:52;;;;;;;6.20;4.68;;;12.90;99.90;;;;;;4998721;28;20480;-75
2023/10/17 11:06:29;;;;;;;6.53;3.47;;;12.70;99.90;;;;;;4995635;28;20044;-75
2023/10/17 11:08:55;;;;;;;5.50;3.78;;;12.60;99.90;;;;;;5028104;28;20033;-75
2023/10/17 11:11:22;;;;;;;5.57;4.05;;;12.40;99.90;;;;;;4999751;28;20033;-75
2023/10/17 11:13:50;;;;;;;6.53;3.03;;;12.40;99.90;;;;;;4999722;28;20040;-75
2023/10/17 11:16:24;;;;;;;4.53;2.95;;;12.40;99.90;;;;;;5029420;28;20037;-75
2023/10/17 11:18:51;;;;;;;7.15;4.55;;;12.40;99.90;;;;;;4999687;28;20357;-76
2023/10/17 11:21:21;;;;;;;5.40;3.63;;;12.40;99.90;;;;;;5018391;28;20045;-75
2023/10/17 11:23:59;;;;;;;7.35;3.40;;;12.50;99.90;;;;;;5018798;28;20060;-75
2023/10/17 11:26:29;;;;;;;5.55;4.40;;;12.50;99.90;;;;;;5020462;28;20029;-75
2023/10/17 11:28:57;;;;;;;6.47;3.47;;;12.40;99.90;;;;;;5000205;28;20041;-76
2023/10/17 11:31:25;;;;;;;6.82;5.13;;;12.40;99.90;;;;;;5018373;28;20039;-76
2023/10/17 11:33:56;;;;;;;7.05;4.10;;;12.40;99.90;;;;;;5002097;28;20045;-76
2023/10/17 11:36:23;;;;;;;6.78;4.03;;;12.30;99.90;;;;;;5003062;28;20037;-77
2023/10/17 11:38:58;;;;;;;4.97;2.45;;;12.30;99.90;;;;;;5001625;28;20391;-75
2023/10/17 11:41:39;;;;;;;6.75;3.85;;;12.30;99.90;;;;;;5001345;28;20526;-75
2023/10/17 11:44:06;;;;;;;6.93;2.20;;;12.30;99.90;;;;;;5000248;28;20040;-75
2023/10/17 11:46:34;;;;;;;3.90;2.72;;;12.40;99.90;;;;;;5019394;28;20044;-76
2023/10/17 11:49:31;;;;;;;3.50;2.13;;;12.50;99.90;;;;;;5001339;28;20048;-76
2023/10/17 11:52:05;;;;;;;4.00;2.17;;;12.60;99.90;;;;;;5028293;28;20037;-75
2023/10/17 11:54:32;;;;;;;6.70;3.35;;;13.00;99.90;;;;;;5019219;28;20036;-76
2023/10/17 11:57:11;;;;;;;3.60;2.08;;;13.40;99.90;;;;;;5018946;28;20611;-76
2023/10/17 11:59:38;;;;;;;5.35;2.95;;;14.20;99.90;;;;;;5010389;28;20048;-75
2023/10/17 12:02:04;;;;;;;5.78;2.22;;;14.90;99.90;;;;;;5020651;28;20049;-75
2023/10/17 12:04:33;;;;;;;4.05;1.52;;;15.80;99.90;;;;;;5002683;28;20025;-75
2023/10/17 12:07:00;;;;;;;3.47;1.48;;;16.50;99.90;;;;;;5021378;28;20037;-76
2023/10/17 12:09:26;;;;;;;4.05;1.17;;;17.10;99.90;;;;;;4999872;28;20033;-75
2023/10/17 12:11:54;;;;;;;6.65;1.25;;;17.80;99.90;;;;;;5019937;28;20040;-76
2023/10/17 12:14:21;;;;;;;4.95;1.20;;;18.40;99.90;;;;;;5000792;28;20384;-75
2023/10/17 12:16:48;;;;;;;2.90;1.10;;;18.60;99.90;;;;;;5020696;28;20056;-76
2023/10/17 12:19:17;;;;;;;3.30;1.02;;;18.50;99.90;;;;;;5020516;28;20033;-75
2023/10/17 12:21:47;;;;;;;2.25;0.77;;;18.60;99.90;;;;;;5001904;28;21143;-74
2023/10/17 12:24:24;;;;;;;2.35;0.50;;;19.20;99.90;;;;;;5018573;28;20025;-75
2023/10/17 12:26:51;;;;;;;4.45;0.98;;;19.90;99.90;;;;;;5012004;28;20033;-75
2023/10/17 12:29:17;;;;;;;2.65;0.93;;;19.70;99.90;;;;;;5000339;28;20389;-76
2023/10/17 12:31:45;;;;;;;4.97;0.82;;;20.00;99.90;;;;;;5000323;28;20036;-75
2023/10/17 12:34:15;;;;;;;1.77;0.50;;;20.60;99.90;;;;;;5001217;28;20382;-74
2023/10/17 12:36:46;;;;;;;1.85;0.60;;;20.60;99.90;;;;;;5015155;28;20404;-75
2023/10/17 12:39:19;;;;;;;1.70;0.47;;;20.40;99.90;;;;;;5033746;28;20041;-75
2023/10/17 12:41:46;;;;;;;3.45;0.90;;;20.40;99.90;;;;;;5000844;28;20033;-75
2023/10/17 12:44:13;;;;;;;2.72;0.70;;;19.60;99.90;;;;;;5018834;28;20037;-76
2023/10/17 12:46:40;;;;;;;2.17;0.70;;;18.40;99.90;;;;;;5017396;28;20021;-76
2023/10/17 12:49:07;;;;;;;2.78;0.93;;;17.30;99.90;;;;;;5015272;28;20389;-76
2023/10/17 12:51:34;;;;;;;3.65;1.27;;;16.50;99.90;;;;;;5001362;28;20543;-74
2023/10/17 12:54:00;;;;;;;2.55;1.00;;;15.80;99.90;;;;;;5017222;28;20034;-76
2023/10/17 12:56:26;;;;;;;3.53;1.05;;;15.40;99.90;;;;;;4996392;28;20327;-76
2023/10/17 12:58:52;;;;;;;2.30;0.93;;;15.00;99.90;;;;;;5014032;28;20400;-74
2023/10/17 13:01:24;;;;;;;2.55;0.93;;;14.70;99.90;;;;;;5031311;28;20029;-75
2023/10/17 13:03:57;;;;;;;2.65;0.80;;;14.40;99.90;;;;;;4999923;28;20026;-81
2023/10/17 13:06:27;;;;;;;2.13;0.90;;;14.10;99.90;;;;;;5033712;28;20277;-75
2023/10/17 13:08:57;;;;;;;4.18;1.08;;;14.00;99.90;;;;;;5016760;28;20060;-75
2023/10/17 13:11:27;;;;;;;3.17;0.75;;;13.80;99.90;;;;;;5015926;28;20052;-74
2023/10/17 13:13:54;;;;;;;4.28;1.42;;;13.70;99.90;;;;;;5017764;28;20041;-74
2023/10/17 13:16:23;;;;;;;2.05;1.30;;;13.60;99.90;;;;;;5018096;28;20041;-74
2023/10/17 13:18:50;;;;;;;4.70;1.83;;;13.50;99.90;;;;;;5013229;28;20034;-75
2023/10/17 13:21:17;;;;;;;1.92;0.98;;;13.40;99.90;;;;;;5000435;28;20400;-75
2023/10/17 13:23:44;;;;;;;4.47;0.90;;;13.20;99.90;;;;;;4996935;28;20029;-74
2023/10/17 13:26:15;;;;;;;2.72;0.98;;;13.10;99.90;;;;;;5001811;28;20042;-75
2023/10/17 13:28:42;;;;;;;3.88;0.98;;;13.00;99.90;;;;;;5017323;28;20025;-75
2023/10/17 13:31:12;;;;;;;1.50;0.60;;;12.90;99.90;;;;;;4997600;28;20048;-75
2023/10/17 13:33:39;;;;;;;4.32;1.67;;;12.90;99.90;;;;;;5015505;28;20033;-75
2023/10/17 13:36:11;;;;;;;2.92;1.25;;;12.80;99.90;;;;;;5015659;28;20021;-75
2023/10/17 13:38:38;;;;;;;;;;;12.80;99.90;;;;;;4995916;28;20037;-73
2023/10/17 13:41:15;;;;;;;3.65;1.30;;;12.70;99.90;;;;;;5015006;28;20439;-75
2023/10/17 13:43:45;;;;;;;7.40;4.65;;;12.70;99.90;;;;;;4996601;28;20491;-74
2023/10/17 13:46:16;;;;;;;3.83;1.58;;;12.60;99.90;;;;;;5014783;28;20377;-72
2023/10/17 13:48:49;;;;;;;3.42;0.93;;;12.60;99.90;;;;;;5008747;28;20063;-73
2023/10/17 13:51:17;;;;;;;2.55;0.80;;;12.50;99.90;;;;;;5016855;28;20499;-74
2023/10/17 13:53:48;;;;;;;4.68;1.40;;;12.50;99.90;;;;;;5029253;28;20029;-74
2023/10/17 13:56:18;;;;;;;4.75;1.42;;;12.50;99.90;;;;;;4995889;28;20025;-73
2023/10/17 13:58:46;;;;;;;3.35;1.15;;;12.50;99.90;;;;;;5028273;28;20021;-73
2023/10/17 14:01:31;;;;;;;3.45;1.50;;;12.50;99.90;;;;;;5029337;28;20034;-74
2023/10/17 14:04:00;;;;;;;3.13;1.40;;;12.50;99.90;;;;;;5014432;28;20032;-74
2023/10/17 14:06:27;;;;;;;3.17;1.63;;;12.40;99.90;;;;;;4993587;28;20033;-74
2023/10/17 14:08:59;;;;;;;3.78;1.83;;;12.40;99.90;;;;;;5014785;28;20520;-73
2023/10/17 14:11:25;;;;;;;2.67;1.85;;;12.40;99.90;;;;;;4997045;28;20034;-75
2023/10/17 14:13:54;;;;;;;2.95;1.52;;;12.30;99.90;;;;;;4998346;28;20045;-74
2023/10/17 14:16:23;;;;;;;2.72;1.13;;;12.30;99.90;;;;;;5012138;28;20029;-74
2023/10/17 14:19:04;;;;;;;2.53;0.93;;;12.20;99.90;;;;;;4991756;28;20492;-74
2023/10/17 14:21:40;;;;;;;2.78;1.05;;;12.20;99.90;;;;;;5015027;28;20416;-74
2023/10/17 14:24:07;;;;;;;2.63;1.90;;;12.20;99.90;;;;;;4996916;28;20034;-75
2023/10/17 14:26:34;;;;;;;3.13;1.40;;;12.10;99.90;;;;;;5015933;28;20037;-78
2023/10/17 14:29:00;;;;;;;1.83;0.80;;;12.10;99.90;;;;;;4998993;28;20038;-77
2023/10/17 14:31:29;;;;;;;4.93;1.77;;;12.10;99.90;;;;;;4996680;28;20038;-76
2023/10/17 14:33:59;;;;;;;2.22;0.90;;;12.00;99.90;;;;;;4999226;28;20038;-75
2023/10/17 14:36:29;;;;;;;3.20;1.25;;;12.00;99.90;;;;;;4998936;28;20026;-74
2023/10/17 14:38:56;;;;;;;4.20;1.50;;;12.00;99.90;;;;;;5015993;28;20025;-75
2023/10/17 14:41:25;;;;;;;5.57;2.08;;;11.90;99.90;;;;;;4999857;28;20029;-76
2023/10/17 14:43:52;;;;;;;4.93;1.60;;;11.90;99.90;;;;;;4999127;28;20053;-75
2023/10/17 14:46:21;;;;;;;3.58;2.03;;;11.90;99.90;;;;;;4983251;28;20037;-76
2023/10/17 14:48:48;;;;;;;2.95;1.52;;;11.90;99.90;;;;;;5031814;28;20034;-75
2023/10/17 14:51:15;;;;;;;3.63;1.42;;;11.90;99.90;;;;;;4999837;28;20046;-75
2023/10/17 14:53:43;;;;;;;2.63;0.80;;;11.80;99.90;;;;;;5015992;28;20060;-75
2023/10/17 14:56:13;;;;;;;2.63;1.35;;;11.80;99.90;;;;;;5002462;28;20147;-76
2023/10/17 14:58:51;;;;;;;6.18;1.42;;;11.80;99.90;;;;;;5017602;28;20033;-78
2023/10/17 15:01:17;;;;;;;2.65;1.00;;;11.80;99.90;;;;;;5031423;28;20484;-75
2023/10/17 15:03:47;;;;;;;3.60;1.00;;;11.80;99.90;;;;;;5020155;28;20476;-77
2023/10/17 15:06:15;;;;;;;5.10;1.63;;;11.80;99.90;;;;;;5019659;28;20029;-76
2023/10/17 15:08:41;;;;;;;4.30;2.38;;;11.80;99.90;;;;;;5020519;28;20026;-77
2023/10/17 15:11:10;;;;;;;4.40;1.63;;;11.80;99.90;;;;;;5000883;28;20041;-74
2023/10/17 15:13:37;;;;;;;2.30;0.98;;;11.80;99.90;;;;;;5020981;28;20033;-75
2023/10/17 15:16:16;;;;;;;2.45;1.13;;;11.80;99.90;;;;;;5028831;28;20033;-75
2023/10/17 15:18:43;;;;;;;1.88;1.08;;;11.70;99.90;;;;;;5003754;28;20045;-75